Fesco Vladimir — 5BSL2 — position and weather

sailwx.info

Track history (hours):
 
Tides and Currents Weather Stations Pressure Air Temp Water Temp Dewpoint Dewpoint Depression Visibility Wind Speed Wind Dir Waves Ship Positions

Fesco Vladimir

Last reported at 2015-Jan-28 11:33 UTC. Time now 2015-Jan-28 12:14 UTC.
Position N 54°49' E 012°50'.

Length 184 m; draft 8.9 m.

Type: Cargo ship. MMSI: 209777000.

Date/timePositionNaut miles runAvg speedWind from/ knotsBaromVisibWave heightAir tempDewpointWater temp
2015-Jan-28 11:33N 54°49' E 012°50'1413.3
2015-Jan-28 10:32N 54°53' E 013°12'1313.1
2015-Jan-28 09:33N 54°58' E 013°33'1313.0
2015-Jan-28 08:33N 55°03' E 013°54'1312.2
2015-Jan-28 07:30N 55°10' E 014°12'1313.5
2015-Jan-28 06:34N 55°20' E 014°27'1413.6
2015-Jan-28 05:33N 55°29' E 014°44'1414.1
2015-Jan-28 04:33N 55°36' E 015°06'1714.3
2015-Jan-28 03:23N 55°44' E 015°32'34213.7
2015-Jan-27 02:21N 59°37' E 023°19'1113.5
2015-Jan-27 01:33N 59°40' E 023°40'1413.5
2015-Jan-27 00:33N 59°44' E 024°06'1413.9
2015-Jan-26 23:33N 59°48' E 024°32'1514.0
2015-Jan-26 22:29N 59°51' E 025°01'3114.0
2015-Jan-26 20:18N 59°57' E 026°01'1013.8
2015-Jan-26 19:33N 59°60' E 026°21'1413.8
2015-Jan-26 18:33N 60°00' E 026°49'1413.3
2015-Jan-26 17:32N 60°03' E 027°15'8712.4
2015-Jan-26 10:33N 59°54' E 030°08'3 2.9
2015-Jan-26 09:32N 59°54' E 030°14'0 0.0
2015-Jan-26 08:20N 59°54' E 030°14'0 0.0
2015-Jan-26 07:26N 59°54' E 030°14'0 0.0
2015-Jan-26 06:20N 59°54' E 030°14'0 0.0
2015-Jan-26 04:14N 59°54' E 030°14'0 0.0
2015-Jan-26 03:32N 59°54' E 030°14'0 0.0
2015-Jan-26 02:32N 59°54' E 030°14'0 0.0
2015-Jan-26 01:32N 59°54' E 030°14'0 0.0
2015-Jan-26 00:29N 59°54' E 030°14'0 0.0
2015-Jan-25 23:20N 59°54' E 030°14'0 0.0
2015-Jan-25 21:26N 59°54' E 030°14'0 0.0
2015-Jan-25 19:32N 59°54' E 030°14'1 1.3
2015-Jan-25 18:32N 59°53' E 030°11'0 0.5
2015-Jan-25 17:32N 59°53' E 030°12'0 0.0
2015-Jan-25 16:32N 59°53' E 030°12'0 0.0
2015-Jan-25 15:32N 59°53' E 030°12'0 0.0
2015-Jan-25 14:29N 59°53' E 030°12'0 0.0
2015-Jan-25 13:32N 59°53' E 030°12'0 0.0
2015-Jan-25 12:32N 59°53' E 030°12'0 0.0
2015-Jan-25 11:20N 59°53' E 030°12'0 0.0
2015-Jan-25 09:32N 59°53' E 030°12'0 0.0
2015-Jan-25 08:20N 59°53' E 030°12'0 0.0
2015-Jan-25 07:33N 59°53' E 030°12'0 0.0
2015-Jan-25 06:33N 59°53' E 030°12'0 0.0
2015-Jan-25 05:14N 59°53' E 030°12'0 0.0
2015-Jan-25 04:32N 59°53' E 030°12'3 0.9
2015-Jan-25 01:30N 59°54' E 030°07'83 6.9
2015-Jan-24 13:32N 60°03' E 027°23'1514.9
2015-Jan-24 12:33N 59°59' E 026°55'1515.6
2015-Jan-24 11:33N 59°57' E 026°24'4814.4
2015-Jan-24 08:12N 59°32' E 025°02'2 0.1
2015-Jan-23 15:31N 59°32' E 024°58'8 8.5
2015-Jan-23 14:33N 59°37' E 024°46'9 9.0
2015-Jan-23 13:33N 59°39' E 024°29'9 8.6
2015-Jan-23 12:33N 59°40' E 024°12'10 9.3
2015-Jan-23 11:29N 59°37' E 023°53'9 9.4
2015-Jan-23 10:33N 59°34' E 023°36'10 9.6
2015-Jan-23 09:30N 59°31' E 023°18'34214.9
2015-Jan-22 10:33N 55°39' E 015°29'1615.7
2015-Jan-22 09:33N 55°31' E 015°04'1615.8
2015-Jan-22 08:33N 55°23' E 014°40'1515.1
2015-Jan-22 07:33N 55°12' E 014°23'1515.1
2015-Jan-22 06:33N 55°00' E 014°06'1515.4
2015-Jan-22 05:33N 54°55' E 013°40'1515.4
2015-Jan-22 04:33N 54°50' E 013°15'1515.4
2015-Jan-22 03:33N 54°46' E 012°49'1515.1
2015-Jan-22 02:33N 54°38' E 012°27'1413.9
2015-Jan-22 01:33N 54°27' E 012°13'1413.9
2015-Jan-22 00:33N 54°25' E 011°50'1414.5
2015-Jan-21 23:33N 54°30' E 011°27'1014.3
2015-Jan-21 22:50N 54°35' E 011°11'114.3
2015-Jan-21 22:46N 54°35' E 011°09'314.5
2015-Jan-21 22:33N 54°37' E 011°05'1313.0
2015-Jan-21 21:33N 54°48' E 010°52'12013.2
2015-Jan-21 12:26N 56°43' E 011°49'1213.9
2015-Jan-21 11:33N 56°55' E 011°46'1514.7
2015-Jan-21 10:33N 57°09' E 011°36'1414.6
2015-Jan-21 09:33N 57°23' E 011°28'1414.0
2015-Jan-21 08:33N 57°34' E 011°12'1414.1
2015-Jan-21 07:33N 57°43' E 010°53'1313.1
2015-Jan-21 06:32N 57°47' E 010°28'11914.3
2015-Jan-20 22:14N 56°34' E 007°36'1515.4
2015-Jan-20 21:16N 56°20' E 007°27'4215.5
2015-Jan-20 18:33N 55°41' E 006°59'1515.3
2015-Jan-20 17:33N 55°27' E 006°51'1615.6
2015-Jan-20 16:33N 55°11' E 006°55'1616.2
2015-Jan-20 15:33N 54°56' E 007°03'1616.2
2015-Jan-20 14:33N 54°40' E 007°11'1616.3
2015-Jan-20 13:34N 54°26' E 007°24'1616.0
2015-Jan-20 12:33N 54°12' E 007°39'1515.1
2015-Jan-20 11:33N 54°03' E 007°60'1414.1
2015-Jan-20 10:33N 53°59' E 008°23'1312.5
2015-Jan-20 09:34N 53°54' E 008°42'1211.6
2015-Jan-20 08:33N 53°51' E 009°01'1312.9
2015-Jan-20 07:33N 53°49' E 009°22'1615.7
2015-Jan-20 06:34N 53°35' E 009°37'1110.9
2015-Jan-20 05:33N 53°32' E 009°54'0 0.4
2015-Jan-20 04:22N 53°32' E 009°55'0 0.0
2015-Jan-20 03:28N 53°32' E 009°55'0 0.0
2015-Jan-20 02:30N 53°32' E 009°55'0 0.0
2015-Jan-20 01:28N 53°32' E 009°55'0 0.0
2015-Jan-20 00:34N 53°32' E 009°55'0 0.0
2015-Jan-19 23:34N 53°32' E 009°55'0 0.0
2015-Jan-19 22:31N 53°32' E 009°55'0 0.0
2015-Jan-19 21:31N 53°32' E 009°55'0 0.0
2015-Jan-19 20:31N 53°32' E 009°55'0 0.0
2015-Jan-19 19:34N 53°32' E 009°55'0 0.0
2015-Jan-19 18:28N 53°32' E 009°55'0 0.0
2015-Jan-19 17:34N 53°32' E 009°55'0 0.0
2015-Jan-19 16:34N 53°32' E 009°55'0 0.0
2015-Jan-19 15:34N 53°32' E 009°55'1 0.9
2015-Jan-19 14:33N 53°32' E 009°54'6 6.5
2015-Jan-19 13:34N 53°34' E 009°43'1313.1
2015-Jan-19 12:33N 53°43' E 009°28'1515.2
2015-Jan-19 11:33N 53°53' E 009°07'1414.5
2015-Jan-19 10:33N 53°53' E 008°43'1615.9
2015-Jan-19 09:33N 53°60' E 008°19'1212.1
2015-Jan-19 08:34N 53°59' E 007°58'2419.3
2015-Jan-19 07:20N 53°53' E 007°19'2220.3
2015-Jan-19 06:14N 53°48' E 006°43'1420.2
2015-Jan-19 05:33N 53°44' E 006°20'2020.2
2015-Jan-19 04:34N 53°38' E 005°48'2120.5
2015-Jan-19 03:34N 53°31' E 005°15'2120.7
2015-Jan-19 02:33N 53°23' E 004°43'2120.4
2015-Jan-19 01:33N 53°05' E 004°26'2019.6
2015-Jan-19 00:33N 52°48' E 004°10'1919.4
2015-Jan-18 23:33N 52°31' E 003°55'1918.6
2015-Jan-18 22:34N 52°12' E 003°54'1111.1
2015-Jan-18 21:33N 52°02' E 003°58'5 5.0
2015-Jan-18 20:31N 51°58' E 004°04'0 0.0
2015-Jan-18 19:31N 51°58' E 004°04'0 0.0
2015-Jan-18 18:31N 51°58' E 004°04'0 0.0
2015-Jan-18 17:31N 51°58' E 004°04'0 0.0
2015-Jan-18 16:28N 51°58' E 004°04'0 0.0
2015-Jan-18 15:31N 51°58' E 004°04'0 0.0
2015-Jan-18 14:31N 51°58' E 004°04'0 0.0
2015-Jan-18 13:31N 51°58' E 004°04'0 0.0
2015-Jan-18 12:31N 51°58' E 004°04'  
Track history (hours):
 
Tides and Currents Weather Stations Pressure Air Temp Water Temp Dewpoint Dewpoint Depression Visibility Wind Speed Wind Dir Waves Ship Positions

Fesco Vladimir

Last reported at 2015-Jan-28 11:33 UTC. Time now 2015-Jan-28 12:14 UTC.
Position N 54°49' E 012°50'.

Length 184 m; draft 8.9 m.

Type: Cargo ship. MMSI: 209777000.

Date/timePositionNaut miles runAvg speedWind from/ knotsBaromVisibWave heightAir tempDewpointWater temp
2015-Jan-28 11:33N 54°49' E 012°50'1413.3
2015-Jan-28 10:32N 54°53' E 013°12'1313.1
2015-Jan-28 09:33N 54°58' E 013°33'1313.0
2015-Jan-28 08:33N 55°03' E 013°54'1312.2
2015-Jan-28 07:30N 55°10' E 014°12'1313.5
2015-Jan-28 06:34N 55°20' E 014°27'1413.6
2015-Jan-28 05:33N 55°29' E 014°44'1414.1
2015-Jan-28 04:33N 55°36' E 015°06'1714.3
2015-Jan-28 03:23N 55°44' E 015°32'34213.7
2015-Jan-27 02:21N 59°37' E 023°19'1113.5
2015-Jan-27 01:33N 59°40' E 023°40'1413.5
2015-Jan-27 00:33N 59°44' E 024°06'1413.9
2015-Jan-26 23:33N 59°48' E 024°32'1514.0
2015-Jan-26 22:29N 59°51' E 025°01'3114.0
2015-Jan-26 20:18N 59°57' E 026°01'1013.8
2015-Jan-26 19:33N 59°60' E 026°21'1413.8
2015-Jan-26 18:33N 60°00' E 026°49'1413.3
2015-Jan-26 17:32N 60°03' E 027°15'8712.4
2015-Jan-26 10:33N 59°54' E 030°08'3 2.9
2015-Jan-26 09:32N 59°54' E 030°14'0 0.0
2015-Jan-26 08:20N 59°54' E 030°14'0 0.0
2015-Jan-26 07:26N 59°54' E 030°14'0 0.0
2015-Jan-26 06:20N 59°54' E 030°14'0 0.0
2015-Jan-26 04:14N 59°54' E 030°14'0 0.0
2015-Jan-26 03:32N 59°54' E 030°14'0 0.0
2015-Jan-26 02:32N 59°54' E 030°14'0 0.0
2015-Jan-26 01:32N 59°54' E 030°14'0 0.0
2015-Jan-26 00:29N 59°54' E 030°14'0 0.0
2015-Jan-25 23:20N 59°54' E 030°14'0 0.0
2015-Jan-25 21:26N 59°54' E 030°14'0 0.0
2015-Jan-25 19:32N 59°54' E 030°14'1 1.3
2015-Jan-25 18:32N 59°53' E 030°11'0 0.5
2015-Jan-25 17:32N 59°53' E 030°12'0 0.0
2015-Jan-25 16:32N 59°53' E 030°12'0 0.0
2015-Jan-25 15:32N 59°53' E 030°12'0 0.0
2015-Jan-25 14:29N 59°53' E 030°12'0 0.0
2015-Jan-25 13:32N 59°53' E 030°12'0 0.0
2015-Jan-25 12:32N 59°53' E 030°12'0 0.0
2015-Jan-25 11:20N 59°53' E 030°12'0 0.0
2015-Jan-25 09:32N 59°53' E 030°12'0 0.0
2015-Jan-25 08:20N 59°53' E 030°12'0 0.0
2015-Jan-25 07:33N 59°53' E 030°12'0 0.0
2015-Jan-25 06:33N 59°53' E 030°12'0 0.0
2015-Jan-25 05:14N 59°53' E 030°12'0 0.0
2015-Jan-25 04:32N 59°53' E 030°12'3 0.9
2015-Jan-25 01:30N 59°54' E 030°07'83 6.9
2015-Jan-24 13:32N 60°03' E 027°23'1514.9
2015-Jan-24 12:33N 59°59' E 026°55'1515.6
2015-Jan-24 11:33N 59°57' E 026°24'4814.4
2015-Jan-24 08:12N 59°32' E 025°02'2 0.1
2015-Jan-23 15:31N 59°32' E 024°58'8 8.5
2015-Jan-23 14:33N 59°37' E 024°46'9 9.0
2015-Jan-23 13:33N 59°39' E 024°29'9 8.6
2015-Jan-23 12:33N 59°40' E 024°12'10 9.3
2015-Jan-23 11:29N 59°37' E 023°53'9 9.4
2015-Jan-23 10:33N 59°34' E 023°36'10 9.6
2015-Jan-23 09:30N 59°31' E 023°18'34214.9
2015-Jan-22 10:33N 55°39' E 015°29'1615.7
2015-Jan-22 09:33N 55°31' E 015°04'1615.8
2015-Jan-22 08:33N 55°23' E 014°40'1515.1
2015-Jan-22 07:33N 55°12' E 014°23'1515.1
2015-Jan-22 06:33N 55°00' E 014°06'1515.4
2015-Jan-22 05:33N 54°55' E 013°40'1515.4
2015-Jan-22 04:33N 54°50' E 013°15'1515.4
2015-Jan-22 03:33N 54°46' E 012°49'1515.1
2015-Jan-22 02:33N 54°38' E 012°27'1413.9
2015-Jan-22 01:33N 54°27' E 012°13'1413.9
2015-Jan-22 00:33N 54°25' E 011°50'1414.5
2015-Jan-21 23:33N 54°30' E 011°27'1014.3
2015-Jan-21 22:50N 54°35' E 011°11'114.3
2015-Jan-21 22:46N 54°35' E 011°09'314.5
2015-Jan-21 22:33N 54°37' E 011°05'1313.0
2015-Jan-21 21:33N 54°48' E 010°52'12013.2
2015-Jan-21 12:26N 56°43' E 011°49'1213.9
2015-Jan-21 11:33N 56°55' E 011°46'1514.7
2015-Jan-21 10:33N 57°09' E 011°36'1414.6
2015-Jan-21 09:33N 57°23' E 011°28'1414.0
2015-Jan-21 08:33N 57°34' E 011°12'1414.1
2015-Jan-21 07:33N 57°43' E 010°53'1313.1
2015-Jan-21 06:32N 57°47' E 010°28'11914.3
2015-Jan-20 22:14N 56°34' E 007°36'1515.4
2015-Jan-20 21:16N 56°20' E 007°27'4215.5
2015-Jan-20 18:33N 55°41' E 006°59'1515.3
2015-Jan-20 17:33N 55°27' E 006°51'1615.6
2015-Jan-20 16:33N 55°11' E 006°55'1616.2
2015-Jan-20 15:33N 54°56' E 007°03'1616.2
2015-Jan-20 14:33N 54°40' E 007°11'1616.3
2015-Jan-20 13:34N 54°26' E 007°24'1616.0
2015-Jan-20 12:33N 54°12' E 007°39'1515.1
2015-Jan-20 11:33N 54°03' E 007°60'1414.1
2015-Jan-20 10:33N 53°59' E 008°23'1312.5
2015-Jan-20 09:34N 53°54' E 008°42'1211.6
2015-Jan-20 08:33N 53°51' E 009°01'1312.9
2015-Jan-20 07:33N 53°49' E 009°22'1615.7
2015-Jan-20 06:34N 53°35' E 009°37'1110.9
2015-Jan-20 05:33N 53°32' E 009°54'0 0.4
2015-Jan-20 04:22N 53°32' E 009°55'0 0.0
2015-Jan-20 03:28N 53°32' E 009°55'0 0.0
2015-Jan-20 02:30N 53°32' E 009°55'0 0.0
2015-Jan-20 01:28N 53°32' E 009°55'0 0.0
2015-Jan-20 00:34N 53°32' E 009°55'0 0.0
2015-Jan-19 23:34N 53°32' E 009°55'0 0.0
2015-Jan-19 22:31N 53°32' E 009°55'0 0.0
2015-Jan-19 21:31N 53°32' E 009°55'0 0.0
2015-Jan-19 20:31N 53°32' E 009°55'0 0.0
2015-Jan-19 19:34N 53°32' E 009°55'0 0.0
2015-Jan-19 18:28N 53°32' E 009°55'0 0.0
2015-Jan-19 17:34N 53°32' E 009°55'0 0.0
2015-Jan-19 16:34N 53°32' E 009°55'0 0.0
2015-Jan-19 15:34N 53°32' E 009°55'1 0.9
2015-Jan-19 14:33N 53°32' E 009°54'6 6.5
2015-Jan-19 13:34N 53°34' E 009°43'1313.1
2015-Jan-19 12:33N 53°43' E 009°28'1515.2
2015-Jan-19 11:33N 53°53' E 009°07'1414.5
2015-Jan-19 10:33N 53°53' E 008°43'1615.9
2015-Jan-19 09:33N 53°60' E 008°19'1212.1
2015-Jan-19 08:34N 53°59' E 007°58'2419.3
2015-Jan-19 07:20N 53°53' E 007°19'2220.3
2015-Jan-19 06:14N 53°48' E 006°43'1420.2
2015-Jan-19 05:33N 53°44' E 006°20'2020.2
2015-Jan-19 04:34N 53°38' E 005°48'2120.5
2015-Jan-19 03:34N 53°31' E 005°15'2120.7
2015-Jan-19 02:33N 53°23' E 004°43'2120.4
2015-Jan-19 01:33N 53°05' E 004°26'2019.6
2015-Jan-19 00:33N 52°48' E 004°10'1919.4
2015-Jan-18 23:33N 52°31' E 003°55'1918.6
2015-Jan-18 22:34N 52°12' E 003°54'1111.1
2015-Jan-18 21:33N 52°02' E 003°58'5 5.0
2015-Jan-18 20:31N 51°58' E 004°04'0 0.0
2015-Jan-18 19:31N 51°58' E 004°04'0 0.0
2015-Jan-18 18:31N 51°58' E 004°04'0 0.0
2015-Jan-18 17:31N 51°58' E 004°04'0 0.0
2015-Jan-18 16:28N 51°58' E 004°04'0 0.0
2015-Jan-18 15:31N 51°58' E 004°04'0 0.0
2015-Jan-18 14:31N 51°58' E 004°04'0 0.0
2015-Jan-18 13:31N 51°58' E 004°04'0 0.0
2015-Jan-18 12:31N 51°58' E 004°04'  

Dump ship's entire track history